sensor_id;sensor_type;location;lat;lon;timestamp;pressure;altitude;pressure_sealevel;temperature;humidity
75505;BME280;64085;54.974;73.410;2023-02-28T07:04:36;99364.91;;;1.65;62.17
75505;BME280;64085;54.974;73.410;2023-02-28T07:07:02;99349.66;;;2.50;61.42
75505;BME280;64085;54.974;73.410;2023-02-28T07:09:27;99364.59;;;1.92;62.29
75505;BME280;64085;54.974;73.410;2023-02-28T07:11:57;99347.31;;;2.06;60.94
75505;BME280;64085;54.974;73.410;2023-02-28T07:14:23;99339.72;;;1.51;62.06
75505;BME280;64085;54.974;73.410;2023-02-28T07:16:49;99340.72;;;2.07;62.32
75505;BME280;64085;54.974;73.410;2023-02-28T07:19:15;99354.88;;;2.90;60.69
75505;BME280;64085;54.974;73.410;2023-02-28T07:21:41;99352.91;;;2.35;60.99
75505;BME280;64085;54.974;73.410;2023-02-28T07:24:07;99323.94;;;2.69;60.39
75505;BME280;64085;54.974;73.410;2023-02-28T07:26:32;99314.19;;;2.59;58.83
75505;BME280;64085;54.974;73.410;2023-02-28T07:29:01;99313.78;;;2.14;60.74
75505;BME280;64085;54.974;73.410;2023-02-28T07:31:27;99336.06;;;2.16;61.07
75505;BME280;64085;54.974;73.410;2023-02-28T07:33:53;99329.16;;;2.44;60.93
75505;BME280;64085;54.974;73.410;2023-02-28T07:36:19;99321.44;;;2.46;60.19
75505;BME280;64085;54.974;73.410;2023-02-28T07:38:46;99310.97;;;2.66;60.30
75505;BME280;64085;54.974;73.410;2023-02-28T07:41:14;99309.44;;;2.86;60.41
75505;BME280;64085;54.974;73.410;2023-02-28T07:43:40;99324.09;;;2.72;59.30
75505;BME280;64085;54.974;73.410;2023-02-28T07:46:11;99319.22;;;2.40;59.09
75505;BME280;64085;54.974;73.410;2023-02-28T07:48:37;99319.19;;;2.48;60.75
75505;BME280;64085;54.974;73.410;2023-02-28T07:51:03;99294.78;;;2.61;59.74
75505;BME280;64085;54.974;73.410;2023-02-28T07:53:30;99292.69;;;2.58;60.47
75505;BME280;64085;54.974;73.410;2023-02-28T07:55:59;99323.63;;;2.70;60.89
75505;BME280;64085;54.974;73.410;2023-02-28T07:58:26;99321.75;;;2.62;60.65
75505;BME280;64085;54.974;73.410;2023-02-28T08:00:53;99307.94;;;2.50;59.98
75505;BME280;64085;54.974;73.410;2023-02-28T08:03:19;99312.66;;;2.23;60.87
75505;BME280;64085;54.974;73.410;2023-02-28T08:05:46;99287.00;;;1.98;61.50
75505;BME280;64085;54.974;73.410;2023-02-28T08:08:13;99286.44;;;2.57;60.52
75505;BME280;64085;54.974;73.410;2023-02-28T08:10:39;99298.91;;;2.67;60.64
75505;BME280;64085;54.974;73.410;2023-02-28T08:13:05;99292.88;;;2.52;60.54
75505;BME280;64085;54.974;73.410;2023-02-28T08:15:31;99296.38;;;2.62;60.52
75505;BME280;64085;54.974;73.410;2023-02-28T08:17:56;99288.66;;;2.64;60.38
75505;BME280;64085;54.974;73.410;2023-02-28T08:20:24;99241.94;;;2.27;61.21
75505;BME280;64085;54.974;73.410;2023-02-28T08:22:50;99273.16;;;2.38;61.01
75505;BME280;64085;54.974;73.410;2023-02-28T08:25:15;99271.31;;;2.04;61.51
75505;BME280;64085;54.974;73.410;2023-02-28T08:27:41;99267.28;;;2.19;61.60
75505;BME280;64085;54.974;73.410;2023-02-28T08:30:10;99274.94;;;2.25;61.88
75505;BME280;64085;54.974;73.410;2023-02-28T08:32:35;99244.50;;;2.15;61.48
75505;BME280;64085;54.974;73.410;2023-02-28T08:35:01;99187.91;;;2.12;61.30
75505;BME280;64085;54.974;73.410;2023-02-28T08:37:28;99277.41;;;1.92;62.16
75505;BME280;64085;54.974;73.410;2023-02-28T08:39:53;99269.25;;;2.57;61.46
75505;BME280;64085;54.974;73.410;2023-02-28T08:42:19;99265.38;;;2.66;60.44
75505;BME280;64085;54.974;73.410;2023-02-28T08:44:45;99206.44;;;2.36;60.66
75505;BME280;64085;54.974;73.410;2023-02-28T08:47:11;99258.53;;;2.90;60.82
75505;BME280;64085;54.974;73.410;2023-02-28T08:49:37;99212.56;;;2.24;61.51
75505;BME280;64085;54.974;73.410;2023-02-28T08:52:03;99257.56;;;2.47;61.35
75505;BME280;64085;54.974;73.410;2023-02-28T08:54:29;99248.59;;;2.47;61.35
75505;BME280;64085;54.974;73.410;2023-02-28T08:56:57;99235.00;;;2.30;61.47
75505;BME280;64085;54.974;73.410;2023-02-28T08:59:22;99239.13;;;2.53;61.31
75505;BME280;64085;54.974;73.410;2023-02-28T09:01:48;99242.72;;;2.28;62.23
75505;BME280;64085;54.974;73.410;2023-02-28T09:04:14;99238.38;;;2.73;62.03
75505;BME280;64085;54.974;73.410;2023-02-28T09:06:39;99222.66;;;3.00;60.83
75505;BME280;64085;54.974;73.410;2023-02-28T09:09:05;99174.69;;;2.69;61.20
75505;BME280;64085;54.974;73.410;2023-02-28T09:11:33;99224.81;;;2.86;61.85
75505;BME280;64085;54.974;73.410;2023-02-28T09:14:00;99225.19;;;2.75;61.84
75505;BME280;64085;54.974;73.410;2023-02-28T09:16:30;99211.44;;;2.25;62.44
75505;BME280;64085;54.974;73.410;2023-02-28T09:18:56;99220.91;;;2.28;62.69
75505;BME280;64085;54.974;73.410;2023-02-28T09:21:21;99219.84;;;2.49;62.58
75505;BME280;64085;54.974;73.410;2023-02-28T09:23:48;99229.69;;;2.80;61.95
75505;BME280;64085;54.974;73.410;2023-02-28T09:26:21;99191.44;;;2.50;63.08
75505;BME280;64085;54.974;73.410;2023-02-28T09:28:47;99203.44;;;2.58;62.16
75505;BME280;64085;54.974;73.410;2023-02-28T09:31:15;99205.88;;;2.89;62.62
75505;BME280;64085;54.974;73.410;2023-02-28T09:33:41;99197.13;;;3.04;61.94
75505;BME280;64085;54.974;73.410;2023-02-28T09:36:07;99220.22;;;3.07;61.78
75505;BME280;64085;54.974;73.410;2023-02-28T09:38:33;99192.91;;;3.28;61.40
75505;BME280;64085;54.974;73.410;2023-02-28T09:41:09;99198.44;;;3.19;61.74
75505;BME280;64085;54.974;73.410;2023-02-28T09:43:39;99192.69;;;2.91;62.76
75505;BME280;64085;54.974;73.410;2023-02-28T09:46:27;99162.03;;;2.86;62.68
75505;BME280;64085;54.974;73.410;2023-02-28T09:48:54;99200.59;;;3.14;62.37
75505;BME280;64085;54.974;73.410;2023-02-28T09:51:33;99185.16;;;2.59;63.06
75505;BME280;64085;54.974;73.410;2023-02-28T09:54:02;99163.06;;;2.81;62.71
75505;BME280;64085;54.974;73.410;2023-02-28T09:56:39;99182.63;;;2.83;62.88
75505;BME280;64085;54.974;73.410;2023-02-28T10:01:39;99174.19;;;3.18;61.61
75505;BME280;64085;54.974;73.410;2023-02-28T10:06:49;99167.53;;;3.48;62.13
75505;BME280;64085;54.974;73.410;2023-02-28T10:09:19;99149.59;;;3.59;62.12
75505;BME280;64085;54.974;73.410;2023-02-28T10:11:51;99144.00;;;3.56;60.97
75505;BME280;64085;54.974;73.410;2023-02-28T10:14:38;99160.06;;;3.57;61.63
75505;BME280;64085;54.974;73.410;2023-02-28T10:17:21;99159.19;;;3.65;62.71
75505;BME280;64085;54.974;73.410;2023-02-28T10:22:36;99143.38;;;3.71;62.53
75505;BME280;64085;54.974;73.410;2023-02-28T10:25:24;99150.03;;;3.82;60.77
75505;BME280;64085;54.974;73.410;2023-02-28T10:27:54;99141.72;;;3.91;60.56
75505;BME280;64085;54.974;73.410;2023-02-28T10:30:20;99130.88;;;3.82;61.87
75505;BME280;64085;54.974;73.410;2023-02-28T10:32:50;99122.34;;;3.84;61.24
75505;BME280;64085;54.974;73.410;2023-02-28T10:35:21;99140.16;;;3.69;61.44
75505;BME280;64085;54.974;73.410;2023-02-28T10:37:53;99110.41;;;3.55;60.70
75505;BME280;64085;54.974;73.410;2023-02-28T10:42:55;99132.09;;;3.39;62.52
75505;BME280;64085;54.974;73.410;2023-02-28T10:45:22;99129.47;;;3.43;62.48
75505;BME280;64085;54.974;73.410;2023-02-28T10:47:55;99129.81;;;3.62;62.57
75505;BME280;64085;54.974;73.410;2023-02-28T10:50:45;99131.22;;;3.48;62.53
75505;BME280;64085;54.974;73.410;2023-02-28T10:53:25;99134.03;;;3.39;62.49
75505;BME280;64085;54.974;73.410;2023-02-28T10:59:03;99134.13;;;3.63;62.25
75505;BME280;64085;54.974;73.410;2023-02-28T11:01:46;99136.91;;;3.76;63.54
75505;BME280;64085;54.974;73.410;2023-02-28T11:07:04;99126.03;;;4.00;62.28
75505;BME280;64085;54.974;73.410;2023-02-28T11:09:36;99108.22;;;3.94;61.66
75505;BME280;64085;54.974;73.410;2023-02-28T11:12:08;99116.22;;;3.87;62.14
75505;BME280;64085;54.974;73.410;2023-02-28T11:14:54;99102.28;;;3.80;62.02
75505;BME280;64085;54.974;73.410;2023-02-28T11:17:26;99100.16;;;4.10;62.56
75505;BME280;64085;54.974;73.410;2023-02-28T11:19:58;99113.06;;;4.21;61.66
75505;BME280;64085;54.974;73.410;2023-02-28T11:22:31;99121.69;;;3.87;61.69
75505;BME280;64085;54.974;73.410;2023-02-28T11:24:59;99112.72;;;4.35;61.59
75505;BME280;64085;54.974;73.410;2023-02-28T11:27:43;99115.13;;;4.49;60.92
75505;BME280;64085;54.974;73.410;2023-02-28T11:30:31;99113.84;;;3.98;60.89
75505;BME280;64085;54.974;73.410;2023-02-28T11:32:57;99117.31;;;3.74;63.26
75505;BME280;64085;54.974;73.410;2023-02-28T11:35:27;99117.22;;;3.49;63.16
75505;BME280;64085;54.974;73.410;2023-02-28T11:37:55;99093.94;;;3.64;63.25
75505;BME280;64085;54.974;73.410;2023-02-28T11:46:34;99105.31;;;3.54;62.94
75505;BME280;64085;54.974;73.410;2023-02-28T11:52:10;99109.31;;;3.68;63.28
75505;BME280;64085;54.974;73.410;2023-02-28T11:55:41;99109.97;;;3.32;63.68
75505;BME280;64085;54.974;73.410;2023-02-28T12:05:59;99120.13;;;3.65;63.52
75505;BME280;64085;54.974;73.410;2023-02-28T12:11:35;99122.44;;;3.42;63.05
75505;BME280;64085;54.974;73.410;2023-02-28T12:17:18;99123.91;;;3.39;63.76
75505;BME280;64085;54.974;73.410;2023-02-28T12:22:23;99126.47;;;3.03;63.41
75505;BME280;64085;54.974;73.410;2023-02-28T12:27:36;99134.22;;;3.34;62.90
75505;BME280;64085;54.974;73.410;2023-02-28T12:30:05;99131.16;;;3.35;64.35
75505;BME280;64085;54.974;73.410;2023-02-28T12:32:41;99131.72;;;3.29;63.95
75505;BME280;64085;54.974;73.410;2023-02-28T12:35:55;99139.16;;;3.41;63.34
75505;BME280;64085;54.974;73.410;2023-02-28T12:41:15;99152.03;;;3.40;63.98
75505;BME280;64085;54.974;73.410;2023-02-28T12:43:44;99147.66;;;3.60;64.09
75505;BME280;64085;54.974;73.410;2023-02-28T12:46:17;99145.41;;;3.62;63.60
75505;BME280;64085;54.974;73.410;2023-02-28T12:48:48;99135.66;;;3.73;62.33
75505;BME280;64085;54.974;73.410;2023-02-28T12:51:17;99135.56;;;3.82;62.18
75505;BME280;64085;54.974;73.410;2023-02-28T12:53:54;99123.75;;;3.57;62.31
75505;BME280;64085;54.974;73.410;2023-02-28T12:56:35;99136.84;;;3.97;62.58
75505;BME280;64085;54.974;73.410;2023-02-28T12:59:07;99138.97;;;3.79;62.97
75505;BME280;64085;54.974;73.410;2023-02-28T13:01:45;99145.41;;;3.62;62.43
75505;BME280;64085;54.974;73.410;2023-02-28T13:09:56;99091.66;;;3.33;63.04
75505;BME280;64085;54.974;73.410;2023-02-28T13:12:23;99146.84;;;3.59;62.48
75505;BME280;64085;54.974;73.410;2023-02-28T13:15:07;99143.78;;;3.61;62.04
75505;BME280;64085;54.974;73.410;2023-02-28T13:17:39;99155.31;;;3.66;62.53
75505;BME280;64085;54.974;73.410;2023-02-28T13:20:15;99139.28;;;3.44;63.12
75505;BME280;64085;54.974;73.410;2023-02-28T13:22:47;99152.06;;;3.52;62.36
75505;BME280;64085;54.974;73.410;2023-02-28T13:27:55;99130.69;;;3.54;62.23
75505;BME280;64085;54.974;73.410;2023-02-28T13:35:46;99155.19;;;3.96;61.96
75505;BME280;64085;54.974;73.410;2023-02-28T13:38:24;99161.94;;;3.78;61.06
75505;BME280;64085;54.974;73.410;2023-02-28T13:40:50;99088.22;;;3.24;61.28
75505;BME280;64085;54.974;73.410;2023-02-28T13:43:17;99156.91;;;3.67;61.72
75505;BME280;64085;54.974;73.410;2023-02-28T13:46:08;99149.56;;;3.47;61.19
75505;BME280;64085;54.974;73.410;2023-02-28T13:48:35;99139.19;;;3.74;61.84
75505;BME280;64085;54.974;73.410;2023-02-28T13:51:37;99147.16;;;3.46;62.24
75505;BME280;64085;54.974;73.410;2023-02-28T13:57:07;99157.34;;;3.57;62.30
75505;BME280;64085;54.974;73.410;2023-02-28T13:59:50;99128.13;;;2.95;63.60
75505;BME280;64085;54.974;73.410;2023-02-28T14:05:00;99172.94;;;3.57;62.38
75505;BME280;64085;54.974;73.410;2023-02-28T14:07:31;99169.66;;;3.63;62.49
75505;BME280;64085;54.974;73.410;2023-02-28T14:10:02;99144.66;;;3.53;62.21
75505;BME280;64085;54.974;73.410;2023-02-28T14:12:53;99165.88;;;3.56;61.93
75505;BME280;64085;54.974;73.410;2023-02-28T14:15:40;99158.09;;;3.46;62.59
75505;BME280;64085;54.974;73.410;2023-02-28T14:18:33;99162.41;;;3.47;63.11
75505;BME280;64085;54.974;73.410;2023-02-28T14:21:09;99152.44;;;3.30;63.12
75505;BME280;64085;54.974;73.410;2023-02-28T14:31:54;99179.06;;;3.33;63.45
75505;BME280;64085;54.974;73.410;2023-02-28T14:34:37;99157.50;;;3.40;62.62
75505;BME280;64085;54.974;73.410;2023-02-28T14:37:10;99172.16;;;3.68;61.99
75505;BME280;64085;54.974;73.410;2023-02-28T14:39:41;99140.56;;;3.47;62.07
75505;BME280;64085;54.974;73.410;2023-02-28T14:42:35;99173.28;;;3.88;62.55
75505;BME280;64085;54.974;73.410;2023-02-28T14:45:05;99168.06;;;3.42;63.30
75505;BME280;64085;54.974;73.410;2023-02-28T14:47:32;99157.34;;;3.16;63.85
75505;BME280;64085;54.974;73.410;2023-02-28T14:50:00;99159.50;;;3.31;63.58
75505;BME280;64085;54.974;73.410;2023-02-28T14:52:28;99157.13;;;2.79;64.49
75505;BME280;64085;54.974;73.410;2023-02-28T14:55:03;99148.28;;;3.45;63.79
75505;BME280;64085;54.974;73.410;2023-02-28T14:57:32;99107.59;;;3.10;63.20
75505;BME280;64085;54.974;73.410;2023-02-28T15:02:25;99142.34;;;3.43;62.60
75505;BME280;64085;54.974;73.410;2023-02-28T15:04:57;99134.97;;;3.22;64.17
75505;BME280;64085;54.974;73.410;2023-02-28T15:07:23;99142.53;;;3.58;62.84
75505;BME280;64085;54.974;73.410;2023-02-28T15:10:17;99156.97;;;3.80;62.61
75505;BME280;64085;54.974;73.410;2023-02-28T15:13:09;99159.53;;;3.97;61.87
75505;BME280;64085;54.974;73.410;2023-02-28T15:15:53;99160.06;;;3.57;62.13
75505;BME280;64085;54.974;73.410;2023-02-28T15:18:31;99146.56;;;3.73;61.99
75505;BME280;64085;54.974;73.410;2023-02-28T15:21:02;99163.00;;;3.85;61.77
75505;BME280;64085;54.974;73.410;2023-02-28T15:23:30;99146.56;;;3.40;62.83
75505;BME280;64085;54.974;73.410;2023-02-28T15:25:56;99164.28;;;3.13;63.63
75505;BME280;64085;54.974;73.410;2023-02-28T15:28:23;99166.81;;;3.39;63.66
75505;BME280;64085;54.974;73.410;2023-02-28T15:31:01;99136.97;;;3.34;63.28
75505;BME280;64085;54.974;73.410;2023-02-28T15:33:32;99176.28;;;3.62;63.29
75505;BME280;64085;54.974;73.410;2023-02-28T15:38:35;99157.69;;;3.35;63.87
75505;BME280;64085;54.974;73.410;2023-02-28T15:41:01;99134.97;;;3.22;63.43
75505;BME280;64085;54.974;73.410;2023-02-28T15:43:37;99141.78;;;3.16;63.34
75505;BME280;64085;54.974;73.410;2023-02-28T15:46:08;99152.88;;;3.32;63.31
75505;BME280;64085;54.974;73.410;2023-02-28T15:48:37;99169.94;;;3.83;62.24
75505;BME280;64085;54.974;73.410;2023-02-28T15:51:12;99130.38;;;3.68;62.95
75505;BME280;64085;54.974;73.410;2023-02-28T15:54:01;99133.16;;;3.80;62.94
75505;BME280;64085;54.974;73.410;2023-02-28T15:56:31;99164.66;;;3.99;61.95
75505;BME280;64085;54.974;73.410;2023-02-28T15:59:03;99164.19;;;3.97;62.06
75505;BME280;64085;54.974;73.410;2023-02-28T16:01:33;99111.94;;;3.77;61.78
75505;BME280;64085;54.974;73.410;2023-02-28T16:04:11;99157.75;;;3.80;62.26
75505;BME280;64085;54.974;73.410;2023-02-28T16:06:43;99132.81;;;3.82;62.72
75505;BME280;64085;54.974;73.410;2023-02-28T16:09:12;99153.19;;;3.72;62.45
75505;BME280;64085;54.974;73.410;2023-02-28T16:11:48;99157.00;;;3.92;62.17
75505;BME280;64085;54.974;73.410;2023-02-28T16:14:17;99156.38;;;3.74;62.21
75505;BME280;64085;54.974;73.410;2023-02-28T16:16:45;99162.19;;;3.73;63.15
75505;BME280;64085;54.974;73.410;2023-02-28T16:19:12;99156.34;;;4.07;62.13
75505;BME280;64085;54.974;73.410;2023-02-28T16:21:38;99117.94;;;3.58;62.69
75505;BME280;64085;54.974;73.410;2023-02-28T16:24:03;99147.31;;;3.94;62.58
75505;BME280;64085;54.974;73.410;2023-02-28T16:26:29;99128.91;;;4.04;62.81
75505;BME280;64085;54.974;73.410;2023-02-28T16:28:55;99140.97;;;4.15;61.93
75505;BME280;64085;54.974;73.410;2023-02-28T16:31:21;99153.97;;;4.18;62.03
75505;BME280;64085;54.974;73.410;2023-02-28T16:33:47;99142.56;;;4.16;61.46
75505;BME280;64085;54.974;73.410;2023-02-28T16:36:17;99149.56;;;3.80;61.79
75505;BME280;64085;54.974;73.410;2023-02-28T16:38:44;99140.72;;;3.95;61.52
75505;BME280;64085;54.974;73.410;2023-02-28T16:41:12;99130.69;;;4.12;61.96
75505;BME280;64085;54.974;73.410;2023-02-28T16:43:45;99106.66;;;4.05;62.07
75505;BME280;64085;54.974;73.410;2023-02-28T16:46:11;99141.66;;;4.12;61.48
75505;BME280;64085;54.974;73.410;2023-02-28T16:48:38;99145.88;;;4.09;62.25
75505;BME280;64085;54.974;73.410;2023-02-28T16:51:08;99136.16;;;3.87;63.22
75505;BME280;64085;54.974;73.410;2023-02-28T16:53:36;99131.03;;;4.10;61.64
75505;BME280;64085;54.974;73.410;2023-02-28T16:56:02;99111.53;;;3.87;62.79
75505;BME280;64085;54.974;73.410;2023-02-28T16:58:28;99119.84;;;3.79;63.00
75505;BME280;64085;54.974;73.410;2023-02-28T17:00:53;99128.06;;;3.91;62.49
75505;BME280;64085;54.974;73.410;2023-02-28T17:03:25;99124.72;;;3.73;63.61
75505;BME280;64085;54.974;73.410;2023-02-28T17:05:52;99119.41;;;4.01;62.65
75505;BME280;64085;54.974;73.410;2023-02-28T17:08:18;99115.28;;;3.83;62.99
75505;BME280;64085;54.974;73.410;2023-02-28T17:10:44;99114.03;;;3.92;62.41
75505;BME280;64085;54.974;73.410;2023-02-28T17:13:09;99114.75;;;4.02;62.75
75505;BME280;64085;54.974;73.410;2023-02-28T17:15:36;99131.53;;;4.12;61.43
75505;BME280;64085;54.974;73.410;2023-02-28T17:18:03;99098.72;;;4.24;61.29
75505;BME280;64085;54.974;73.410;2023-02-28T17:20:29;99118.53;;;4.21;62.44
75505;BME280;64085;54.974;73.410;2023-02-28T17:22:55;99114.31;;;4.24;61.57
75505;BME280;64085;54.974;73.410;2023-02-28T17:25:22;99084.84;;;3.72;63.09
75505;BME280;64085;54.974;73.410;2023-02-28T17:27:49;99118.66;;;3.67;62.67
75505;BME280;64085;54.974;73.410;2023-02-28T17:30:20;99112.81;;;4.02;62.93
75505;BME280;64085;54.974;73.410;2023-02-28T17:32:46;99121.94;;;4.18;61.67
75505;BME280;64085;54.974;73.410;2023-02-28T17:35:12;99106.81;;;4.21;62.04
75505;BME280;64085;54.974;73.410;2023-02-28T17:37:38;99116.25;;;4.23;62.96
75505;BME280;64085;54.974;73.410;2023-02-28T17:40:05;99107.25;;;4.60;61.28
75505;BME280;64085;54.974;73.410;2023-02-28T17:42:31;99097.09;;;4.60;61.28
75505;BME280;64085;54.974;73.410;2023-02-28T17:44:56;99094.59;;;4.31;61.79
75505;BME280;64085;54.974;73.410;2023-02-28T17:47:22;99098.59;;;4.21;61.90
75505;BME280;64085;54.974;73.410;2023-02-28T17:49:48;99082.97;;;4.09;61.88
75505;BME280;64085;54.974;73.410;2023-02-28T17:52:14;99081.22;;;3.80;62.85
75505;BME280;64085;54.974;73.410;2023-02-28T17:54:39;99075.44;;;4.06;62.14
75505;BME280;64085;54.974;73.410;2023-02-28T17:57:05;99069.19;;;4.06;61.83
75505;BME280;64085;54.974;73.410;2023-02-28T17:59:31;99096.44;;;4.39;61.72
75505;BME280;64085;54.974;73.410;2023-02-28T18:02:02;99091.06;;;4.30;62.21
75505;BME280;64085;54.974;73.410;2023-02-28T18:04:29;99072.56;;;3.90;62.43
75505;BME280;64085;54.974;73.410;2023-02-28T18:06:54;99092.00;;;3.64;64.36
75505;BME280;64085;54.974;73.410;2023-02-28T18:09:26;99081.25;;;4.17;63.14
75505;BME280;64085;54.974;73.410;2023-02-28T18:11:53;99081.25;;;4.17;62.76
75505;BME280;64085;54.974;73.410;2023-02-28T18:14:21;99081.84;;;4.22;63.06
75505;BME280;64085;54.974;73.410;2023-02-28T18:16:49;99069.75;;;4.23;61.86
75505;BME280;64085;54.974;73.410;2023-02-28T18:19:14;99081.81;;;4.10;62.78
75505;BME280;64085;54.974;73.410;2023-02-28T18:21:47;99083.63;;;3.82;64.06
75505;BME280;64085;54.974;73.410;2023-02-28T18:24:13;99082.28;;;4.00;62.86
75505;BME280;64085;54.974;73.410;2023-02-28T18:26:40;99038.03;;;3.86;63.61
75505;BME280;64085;54.974;73.410;2023-02-28T18:29:07;99064.16;;;3.95;63.73
75505;BME280;64085;54.974;73.410;2023-02-28T18:31:33;99042.94;;;3.92;63.37
75505;BME280;64085;54.974;73.410;2023-02-28T18:34:00;99057.16;;;3.74;62.82
75505;BME280;64085;54.974;73.410;2023-02-28T18:36:26;99073.97;;;3.97;64.35
75505;BME280;64085;54.974;73.410;2023-02-28T18:38:52;99071.56;;;4.44;62.94
75505;BME280;64085;54.974;73.410;2023-02-28T18:41:19;99080.72;;;3.66;64.67
75505;BME280;64085;54.974;73.410;2023-02-28T18:43:46;99080.94;;;3.61;64.63
75505;BME280;64085;54.974;73.410;2023-02-28T18:46:14;99076.03;;;3.54;64.66
75505;BME280;64085;54.974;73.410;2023-02-28T18:48:40;99085.91;;;3.47;64.87
75505;BME280;64085;54.974;73.410;2023-02-28T18:53:36;99082.91;;;3.73;64.79
75505;BME280;64085;54.974;73.410;2023-02-28T18:56:03;99086.41;;;4.31;63.85
75505;BME280;64085;54.974;73.410;2023-02-28T18:58:30;99086.38;;;4.06;63.68
75505;BME280;64085;54.974;73.410;2023-02-28T19:01:02;99084.09;;;3.96;63.94
75505;BME280;64085;54.974;73.410;2023-02-28T19:03:27;99083.97;;;3.92;64.13
75505;BME280;64085;54.974;73.410;2023-02-28T19:05:57;99070.84;;;3.86;63.58
75505;BME280;64085;54.974;73.410;2023-02-28T19:08:24;99065.63;;;3.81;63.43
75505;BME280;64085;54.974;73.410;2023-02-28T19:10:50;99086.00;;;3.83;63.96
75505;BME280;64085;54.974;73.410;2023-02-28T19:13:16;99067.47;;;2.90;65.95
75505;BME280;64085;54.974;73.410;2023-02-28T19:15:42;99083.97;;;3.47;65.53
75505;BME280;64085;54.974;73.410;2023-02-28T19:18:08;99083.38;;;3.75;64.41
75505;BME280;64085;54.974;73.410;2023-02-28T19:20:33;99060.13;;;3.35;64.88
75505;BME280;64085;54.974;73.410;2023-02-28T19:23:00;99083.06;;;3.88;63.97
75505;BME280;64085;54.974;73.410;2023-02-28T19:25:26;99075.22;;;3.87;63.77
75505;BME280;64085;54.974;73.410;2023-02-28T19:27:53;99065.41;;;4.10;62.83
75505;BME280;64085;54.974;73.410;2023-02-28T19:30:20;99085.69;;;4.09;64.00
75505;BME280;64085;54.974;73.410;2023-02-28T19:32:46;99086.53;;;4.22;63.59
75505;BME280;64085;54.974;73.410;2023-02-28T19:35:13;99079.53;;;3.88;63.52
75505;BME280;64085;54.974;73.410;2023-02-28T19:37:39;99073.38;;;4.03;63.85
75505;BME280;64085;54.974;73.410;2023-02-28T19:40:09;99071.47;;;3.58;64.57
75505;BME280;64085;54.974;73.410;2023-02-28T19:42:37;99065.38;;;3.86;63.93
75505;BME280;64085;54.974;73.410;2023-02-28T19:45:03;99053.66;;;3.40;64.42
75505;BME280;64085;54.974;73.410;2023-02-28T19:47:30;99066.97;;;3.29;65.46
75505;BME280;64085;54.974;73.410;2023-02-28T19:49:56;99066.44;;;3.48;65.69
75505;BME280;64085;54.974;73.410;2023-02-28T19:52:23;99074.00;;;3.63;64.62
75505;BME280;64085;54.974;73.410;2023-02-28T19:54:49;99074.72;;;3.73;64.70
75505;BME280;64085;54.974;73.410;2023-02-28T19:57:16;99066.06;;;3.83;64.23
75505;BME280;64085;54.974;73.410;2023-02-28T19:59:43;99043.44;;;3.37;64.49
75505;BME280;64085;54.974;73.410;2023-02-28T20:02:16;99065.38;;;3.28;65.00
75505;BME280;64085;54.974;73.410;2023-02-28T20:04:45;99047.69;;;3.26;64.80
75505;BME280;64085;54.974;73.410;2023-02-28T20:07:13;99074.72;;;3.39;64.70
75505;BME280;64085;54.974;73.410;2023-02-28T20:09:38;99060.53;;;3.46;64.75
75505;BME280;64085;54.974;73.410;2023-02-28T20:12:04;99067.50;;;3.56;64.11
75505;BME280;64085;54.974;73.410;2023-02-28T20:14:30;99065.31;;;3.49;63.76
75505;BME280;64085;54.974;73.410;2023-02-28T20:16:55;99055.81;;;3.34;63.94
75505;BME280;64085;54.974;73.410;2023-02-28T20:19:21;99055.06;;;3.46;64.51
75505;BME280;64085;54.974;73.410;2023-02-28T20:21:47;99053.31;;;3.29;65.15
75505;BME280;64085;54.974;73.410;2023-02-28T20:24:13;99044.00;;;3.43;64.47
75505;BME280;64085;54.974;73.410;2023-02-28T20:26:38;99050.06;;;3.15;64.37
75505;BME280;64085;54.974;73.410;2023-02-28T20:29:06;99061.97;;;3.44;65.02
75505;BME280;64085;54.974;73.410;2023-02-28T20:31:33;99051.81;;;3.32;63.88
75505;BME280;64085;54.974;73.410;2023-02-28T20:34:03;99042.38;;;3.29;64.46
75505;BME280;64085;54.974;73.410;2023-02-28T20:36:29;99036.59;;;3.43;64.62
75505;BME280;64085;54.974;73.410;2023-02-28T20:38:54;99037.22;;;3.28;65.15
75505;BME280;64085;54.974;73.410;2023-02-28T20:41:21;99041.94;;;3.39;64.83
75505;BME280;64085;54.974;73.410;2023-02-28T20:43:46;99042.91;;;3.23;63.92
75505;BME280;64085;54.974;73.410;2023-02-28T20:46:16;99027.94;;;3.29;63.94
75505;BME280;64085;54.974;73.410;2023-02-28T20:48:42;98989.88;;;3.24;64.41
75505;BME280;64085;54.974;73.410;2023-02-28T20:51:08;99031.84;;;3.19;64.04
75505;BME280;64085;54.974;73.410;2023-02-28T20:53:34;99028.41;;;3.10;64.52
75505;BME280;64085;54.974;73.410;2023-02-28T20:56:06;99026.31;;;2.95;64.72
75505;BME280;64085;54.974;73.410;2023-02-28T20:58:35;99042.53;;;3.45;64.31
75505;BME280;64085;54.974;73.410;2023-02-28T21:01:04;99028.88;;;3.45;63.95
75505;BME280;64085;54.974;73.410;2023-02-28T21:03:38;99028.53;;;3.47;64.35
75505;BME280;64085;54.974;73.410;2023-02-28T21:06:05;99027.91;;;3.62;64.32
75505;BME280;64085;54.974;73.410;2023-02-28T21:08:33;99030.88;;;3.81;63.62
75505;BME280;64085;54.974;73.410;2023-02-28T21:10:58;99025.84;;;3.71;63.30
75505;BME280;64085;54.974;73.410;2023-02-28T21:13:24;99022.56;;;3.90;63.39
75505;BME280;64085;54.974;73.410;2023-02-28T21:15:51;99020.41;;;4.08;63.11
75505;BME280;64085;54.974;73.410;2023-02-28T21:18:17;99023.72;;;3.89;63.21
75505;BME280;64085;54.974;73.410;2023-02-28T21:20:43;99013.00;;;3.84;63.82
75505;BME280;64085;54.974;73.410;2023-02-28T21:23:09;99010.00;;;3.64;63.98
75505;BME280;64085;54.974;73.410;2023-02-28T21:25:34;99010.25;;;3.72;63.79
75505;BME280;64085;54.974;73.410;2023-02-28T21:28:00;98981.06;;;3.51;64.32
75505;BME280;64085;54.974;73.410;2023-02-28T21:30:28;99001.16;;;3.80;63.75
75505;BME280;64085;54.974;73.410;2023-02-28T21:32:54;98994.31;;;3.74;63.38
75505;BME280;64085;54.974;73.410;2023-02-28T21:35:21;98933.25;;;3.57;63.90
75505;BME280;64085;54.974;73.410;2023-02-28T21:37:47;98983.34;;;3.61;63.69
75505;BME280;64085;54.974;73.410;2023-02-28T21:40:13;98994.88;;;3.67;64.24